Time;durP1;ratioP1;P1;durP2;ratioP2;P2;SDS_P1;SDS_P2;PMS_P1;PMS_P2;Temp;Humidity;BMP_temperature;BMP_pressure;BME280_temperature;BME280_humidity;BME280_pressure;Samples;Min_cycle;Max_cycle;Signal;HPM_P1;HPM_P2
2024/01/03 00:02:07;;;;;;;0.93;0.40;;;;;;;;;;5038161;28;20216;-66
2024/01/03 00:04:35;;;;;;;0.70;0.40;;;;;;;;;;5037653;28;20206;-66
2024/01/03 00:07:02;;;;;;;0.32;0.32;;;;;;;;;;5037431;28;20312;-66
2024/01/03 00:09:29;;;;;;;0.50;0.50;;;;;;;;;;5037569;28;20224;-66
2024/01/03 00:11:58;;;;;;;0.30;0.30;;;;;;;;;;5037961;28;20205;-66
2024/01/03 00:14:29;;;;;;;0.30;0.30;;;;;;;;;;5037122;28;20206;-66
2024/01/03 00:17:00;;;;;;;0.40;0.32;;;;;;;;;;5037758;28;20277;-66
2024/01/03 00:19:27;;;;;;;0.50;0.40;;;;;;;;;;5037391;28;20636;-66
2024/01/03 00:21:55;;;;;;;0.40;0.40;;;;;;;;;;5037764;28;20237;-66
2024/01/03 00:24:23;;;;;;;0.50;0.35;;;;;;;;;;5037482;28;20206;-65
2024/01/03 00:26:50;;;;;;;0.65;0.38;;;;;;;;;;5037499;28;20284;-65
2024/01/03 00:29:36;;;;;;;0.45;0.45;;;;;;;;;;5036870;28;20218;-65
2024/01/03 00:32:06;;;;;;;0.70;0.38;;;;;;;;;;5037832;28;20205;-65
2024/01/03 00:34:39;;;;;;;0.40;0.25;;;;;;;;;;5037474;28;20300;-65
2024/01/03 00:37:18;;;;;;;0.40;0.30;;;;;;;;;;5037825;28;20201;-65
2024/01/03 00:39:46;;;;;;;0.70;0.30;;;;;;;;;;5037377;28;20241;-66
2024/01/03 00:42:14;;;;;;;0.63;0.50;;;;;;;;;;5038145;28;20292;-66
2024/01/03 00:44:41;;;;;;;0.30;0.30;;;;;;;;;;5037403;28;20201;-66
2024/01/03 00:47:10;;;;;;;0.50;0.40;;;;;;;;;;5036704;28;20291;-66
2024/01/03 00:49:37;;;;;;;0.43;0.40;;;;;;;;;;5036784;28;20245;-66
2024/01/03 00:52:06;;;;;;;0.32;0.30;;;;;;;;;;5037462;28;20206;-66
2024/01/03 00:54:33;;;;;;;0.30;0.30;;;;;;;;;;5037453;28;20205;-66
2024/01/03 00:57:01;;;;;;;0.73;0.40;;;;;;;;;;5036873;28;20201;-66
2024/01/03 00:59:29;;;;;;;0.68;0.30;;;;;;;;;;5037576;28;20217;-66
2024/01/03 01:01:57;;;;;;;0.40;0.30;;;;;;;;;;5036959;28;20206;-66
2024/01/03 01:04:26;;;;;;;0.32;0.32;;;;;;;;;;5037265;28;20224;-66
2024/01/03 01:06:54;;;;;;;0.20;0.20;;;;;;;;;;5037231;28;20240;-66
2024/01/03 01:09:21;;;;;;;0.95;0.28;;;;;;;;;;5036962;28;20205;-66
2024/01/03 01:11:48;;;;;;;0.40;0.40;;;;;;;;;;5037696;28;20237;-66
2024/01/03 01:14:16;;;;;;;0.30;0.30;;;;;;;;;;5037184;28;20300;-66
2024/01/03 01:16:43;;;;;;;0.30;0.30;;;;;;;;;;5037254;28;20284;-66
2024/01/03 01:19:11;;;;;;;0.60;0.20;;;;;;;;;;5037208;28;20265;-66
2024/01/03 01:21:43;;;;;;;0.35;0.35;;;;;;;;;;5036869;28;20241;-66
2024/01/03 01:24:10;;;;;;;0.40;0.30;;;;;;;;;;5035868;28;20205;-66
2024/01/03 01:26:38;;;;;;;0.30;0.30;;;;;;;;;;5036713;28;20264;-66
2024/01/03 01:29:05;;;;;;;2.17;0.40;;;;;;;;;;5036626;28;20293;-67
2024/01/03 01:31:32;;;;;;;0.30;0.30;;;;;;;;;;5037017;28;20244;-66
2024/01/03 01:34:00;;;;;;;0.40;0.40;;;;;;;;;;5037116;28;20248;-66
2024/01/03 01:36:28;;;;;;;0.75;0.40;;;;;;;;;;5036357;28;20216;-66
2024/01/03 01:38:57;;;;;;;0.30;0.20;;;;;;;;;;5037032;28;20283;-66
2024/01/03 01:41:24;;;;;;;0.30;0.30;;;;;;;;;;5036842;28;20206;-66
2024/01/03 01:43:53;;;;;;;0.30;0.30;;;;;;;;;;5036981;28;20309;-66
2024/01/03 01:46:21;;;;;;;0.40;0.30;;;;;;;;;;5036431;28;20233;-66
2024/01/03 01:48:49;;;;;;;0.50;0.50;;;;;;;;;;5036040;28;20237;-66
2024/01/03 01:51:17;;;;;;;0.40;0.20;;;;;;;;;;5036863;28;20300;-66
2024/01/03 01:53:45;;;;;;;0.50;0.30;;;;;;;;;;5036029;28;20206;-66
2024/01/03 01:56:14;;;;;;;2.25;0.38;;;;;;;;;;5036221;28;20202;-66
2024/01/03 01:58:42;;;;;;;0.20;0.20;;;;;;;;;;5036475;28;20213;-66
2024/01/03 02:01:09;;;;;;;0.30;0.30;;;;;;;;;;5036453;28;20215;-66
2024/01/03 02:03:38;;;;;;;0.40;0.40;;;;;;;;;;5036582;28;20315;-66
2024/01/03 02:06:06;;;;;;;0.50;0.40;;;;;;;;;;5036640;28;20240;-66
2024/01/03 02:08:34;;;;;;;0.32;0.32;;;;;;;;;;5036887;28;20206;-66
2024/01/03 02:11:03;;;;;;;0.30;0.30;;;;;;;;;;5036598;28;20231;-65
2024/01/03 02:13:32;;;;;;;0.43;0.40;;;;;;;;;;5036114;28;20213;-66
2024/01/03 02:16:01;;;;;;;0.60;0.40;;;;;;;;;;5036651;28;20651;-66
2024/01/03 02:18:28;;;;;;;0.50;0.43;;;;;;;;;;5035904;28;20950;-66
2024/01/03 02:20:56;;;;;;;0.30;0.30;;;;;;;;;;5036469;28;20670;-65
2024/01/03 02:23:25;;;;;;;0.32;0.32;;;;;;;;;;5036188;28;20538;-65
2024/01/03 02:25:52;;;;;;;0.20;0.20;;;;;;;;;;5036206;28;20233;-65
2024/01/03 02:28:21;;;;;;;0.38;0.35;;;;;;;;;;5036103;28;20206;-65
2024/01/03 02:30:48;;;;;;;0.30;0.30;;;;;;;;;;5036003;28;20205;-65
2024/01/03 02:33:16;;;;;;;0.32;0.30;;;;;;;;;;5036212;28;20206;-65
2024/01/03 02:35:43;;;;;;;0.40;0.30;;;;;;;;;;5037271;28;20206;-66
2024/01/03 02:38:11;;;;;;;0.20;0.20;;;;;;;;;;5039574;28;20538;-65
2024/01/03 02:40:40;;;;;;;0.32;0.30;;;;;;;;;;5039887;28;20592;-65
2024/01/03 02:43:08;;;;;;;0.35;0.30;;;;;;;;;;5040378;28;20312;-65
2024/01/03 02:45:35;;;;;;;0.40;0.30;;;;;;;;;;5039636;28;20665;-66
2024/01/03 02:48:03;;;;;;;0.57;0.40;;;;;;;;;;5039651;28;20260;-66
2024/01/03 02:50:30;;;;;;;0.32;0.30;;;;;;;;;;5039408;28;20206;-66
2024/01/03 02:52:57;;;;;;;0.40;0.35;;;;;;;;;;5040424;28;20524;-65
2024/01/03 02:55:25;;;;;;;0.40;0.30;;;;;;;;;;5039644;28;20205;-65
2024/01/03 02:57:54;;;;;;;0.30;0.30;;;;;;;;;;5039684;28;20476;-65
2024/01/03 03:00:22;;;;;;;0.52;0.35;;;;;;;;;;5039919;28;20206;-65
2024/01/03 03:02:49;;;;;;;0.50;0.40;;;;;;;;;;5040320;28;20272;-65
2024/01/03 03:05:17;;;;;;;0.40;0.30;;;;;;;;;;5039427;28;20245;-65
2024/01/03 03:07:44;;;;;;;0.40;0.40;;;;;;;;;;5039035;28;20229;-66
2024/01/03 03:10:14;;;;;;;0.40;0.40;;;;;;;;;;5039521;28;20493;-66
2024/01/03 03:12:41;;;;;;;0.50;0.43;;;;;;;;;;5038666;28;20271;-66
2024/01/03 03:15:11;;;;;;;0.45;0.38;;;;;;;;;;5039123;28;20210;-66
2024/01/03 03:17:38;;;;;;;0.20;0.20;;;;;;;;;;5039617;28;20288;-66
2024/01/03 03:20:06;;;;;;;0.30;0.30;;;;;;;;;;5039548;28;20275;-66
2024/01/03 03:22:34;;;;;;;0.40;0.25;;;;;;;;;;5039060;28;20213;-66
2024/01/03 03:25:01;;;;;;;0.30;0.30;;;;;;;;;;5039552;28;20206;-66
2024/01/03 03:27:29;;;;;;;0.38;0.30;;;;;;;;;;5038351;28;20688;-66
2024/01/03 03:29:56;;;;;;;0.52;0.30;;;;;;;;;;5039339;28;20213;-66
2024/01/03 03:32:25;;;;;;;0.20;0.20;;;;;;;;;;5039482;28;20459;-66
2024/01/03 03:34:53;;;;;;;0.40;0.30;;;;;;;;;;5038868;28;20214;-66
2024/01/03 03:37:22;;;;;;;0.30;0.30;;;;;;;;;;5038857;28;20228;-66
2024/01/03 03:39:49;;;;;;;0.73;0.40;;;;;;;;;;5038926;28;20312;-66
2024/01/03 03:42:18;;;;;;;0.85;0.40;;;;;;;;;;5038892;28;20300;-66
2024/01/03 03:44:45;;;;;;;0.30;0.30;;;;;;;;;;5037953;28;20268;-66
2024/01/03 03:47:13;;;;;;;0.28;0.28;;;;;;;;;;5037761;28;20283;-66
2024/01/03 03:49:42;;;;;;;0.30;0.30;;;;;;;;;;5038403;28;20244;-66
2024/01/03 03:52:10;;;;;;;0.45;0.22;;;;;;;;;;5038498;28;20213;-67
2024/01/03 03:54:37;;;;;;;0.50;0.30;;;;;;;;;;5037872;28;20293;-66
2024/01/03 03:57:05;;;;;;;0.30;0.25;;;;;;;;;;5037958;28;20542;-66
2024/01/03 03:59:32;;;;;;;0.52;0.28;;;;;;;;;;5038406;28;20206;-66
2024/01/03 04:01:59;;;;;;;0.40;0.22;;;;;;;;;;5038336;28;20299;-66
2024/01/03 04:04:27;;;;;;;0.28;0.28;;;;;;;;;;5038135;28;20562;-66
2024/01/03 04:06:56;;;;;;;0.30;0.30;;;;;;;;;;5037868;28;20302;-66
2024/01/03 04:09:25;;;;;;;0.28;0.28;;;;;;;;;;5038035;28;20291;-66
2024/01/03 04:11:53;;;;;;;0.40;0.40;;;;;;;;;;5038544;28;20217;-65
2024/01/03 04:14:20;;;;;;;0.20;0.20;;;;;;;;;;5037862;28;20595;-65
2024/01/03 04:16:48;;;;;;;0.30;0.20;;;;;;;;;;5038015;28;20290;-65
2024/01/03 04:19:15;;;;;;;0.47;0.30;;;;;;;;;;5037571;28;20237;-65
2024/01/03 04:21:43;;;;;;;0.40;0.30;;;;;;;;;;5038638;28;20599;-65
2024/01/03 04:24:11;;;;;;;0.40;0.30;;;;;;;;;;5037725;28;20575;-66
2024/01/03 04:26:39;;;;;;;0.90;0.30;;;;;;;;;;5037652;28;20257;-66
2024/01/03 04:29:07;;;;;;;0.30;0.30;;;;;;;;;;5037547;28;20204;-66
2024/01/03 04:31:35;;;;;;;0.30;0.30;;;;;;;;;;5037556;28;20205;-66
2024/01/03 04:34:03;;;;;;;0.35;0.30;;;;;;;;;;5037088;28;20236;-66
2024/01/03 04:36:30;;;;;;;0.30;0.30;;;;;;;;;;5037614;28;20642;-66
2024/01/03 04:38:57;;;;;;;0.47;0.30;;;;;;;;;;5038580;28;20205;-66
2024/01/03 04:41:26;;;;;;;0.40;0.40;;;;;;;;;;5037345;28;20296;-65
2024/01/03 04:43:54;;;;;;;0.32;0.32;;;;;;;;;;5037088;28;20205;-65
2024/01/03 04:46:22;;;;;;;0.30;0.30;;;;;;;;;;5037822;28;20217;-66
2024/01/03 04:48:49;;;;;;;0.40;0.30;;;;;;;;;;5037227;28;20568;-66
2024/01/03 04:51:17;;;;;;;0.30;0.30;;;;;;;;;;5037153;28;20308;-66
2024/01/03 04:53:44;;;;;;;0.30;0.30;;;;;;;;;;5037058;28;20205;-66
2024/01/03 04:56:12;;;;;;;0.50;0.40;;;;;;;;;;5036710;28;20241;-66
2024/01/03 04:58:41;;;;;;;0.85;0.30;;;;;;;;;;5036498;28;20236;-66
2024/01/03 05:01:08;;;;;;;0.35;0.30;;;;;;;;;;5037010;28;20206;-66
2024/01/03 05:03:34;;;;;;;0.20;0.20;;;;;;;;;;5036947;28;20308;-66
2024/01/03 05:06:02;;;;;;;0.30;0.30;;;;;;;;;;5036797;28;20212;-66
2024/01/03 05:08:29;;;;;;;0.55;0.30;;;;;;;;;;5036768;28;20628;-66
2024/01/03 05:10:57;;;;;;;0.30;0.30;;;;;;;;;;5037090;28;20206;-66
2024/01/03 05:13:25;;;;;;;0.30;0.30;;;;;;;;;;5022499;28;20197;-65
2024/01/03 05:15:54;;;;;;;0.25;0.25;;;;;;;;;;5011211;28;20237;-65
2024/01/03 05:18:21;;;;;;;0.40;0.30;;;;;;;;;;5015856;28;20198;-65
2024/01/03 05:20:49;;;;;;;0.40;0.40;;;;;;;;;;5016384;28;20213;-66
2024/01/03 05:23:16;;;;;;;0.30;0.30;;;;;;;;;;5016237;28;20206;-66
2024/01/03 05:25:44;;;;;;;0.52;0.50;;;;;;;;;;5016711;28;20206;-66
2024/01/03 05:28:11;;;;;;;0.32;0.30;;;;;;;;;;5015934;28;20296;-66
2024/01/03 05:30:40;;;;;;;0.35;0.30;;;;;;;;;;5016382;28;20210;-66
2024/01/03 05:33:09;;;;;;;1.02;0.30;;;;;;;;;;5016023;28;20238;-66
2024/01/03 05:35:36;;;;;;;0.38;0.38;;;;;;;;;;5015553;28;20619;-66
2024/01/03 05:38:03;;;;;;;0.40;0.40;;;;;;;;;;5016117;28;20286;-66
2024/01/03 05:40:31;;;;;;;0.73;0.35;;;;;;;;;;5016064;28;20597;-66
2024/01/03 05:42:58;;;;;;;0.30;0.30;;;;;;;;;;5016360;28;20289;-66
2024/01/03 05:45:26;;;;;;;0.30;0.30;;;;;;;;;;5015628;28;20206;-66
2024/01/03 05:47:53;;;;;;;0.40;0.40;;;;;;;;;;5014810;28;20226;-66
2024/01/03 05:50:22;;;;;;;0.30;0.30;;;;;;;;;;5014601;28;20580;-66
2024/01/03 05:52:50;;;;;;;0.55;0.30;;;;;;;;;;5014814;28;20217;-66
2024/01/03 05:55:17;;;;;;;0.47;0.30;;;;;;;;;;5015606;28;20616;-66
2024/01/03 05:57:45;;;;;;;0.55;0.28;;;;;;;;;;5015021;28;20206;-66
2024/01/03 06:00:14;;;;;;;0.43;0.40;;;;;;;;;;5015211;28;20293;-66
2024/01/03 06:02:42;;;;;;;0.40;0.40;;;;;;;;;;5014218;28;20258;-66
2024/01/03 06:05:12;;;;;;;0.50;0.35;;;;;;;;;;5014914;28;20217;-66
2024/01/03 06:07:41;;;;;;;1.20;0.38;;;;;;;;;;5014636;28;20221;-66
2024/01/03 06:10:08;;;;;;;1.20;0.40;;;;;;;;;;5015451;28;20218;-66
2024/01/03 06:12:36;;;;;;;0.43;0.35;;;;;;;;;;5021629;28;20279;-66
2024/01/03 06:15:04;;;;;;;1.15;0.40;;;;;;;;;;5021429;28;20209;-66
2024/01/03 06:17:31;;;;;;;0.68;0.30;;;;;;;;;;5021138;28;20201;-66
2024/01/03 06:19:59;;;;;;;0.68;0.30;;;;;;;;;;5021222;28;20237;-66
2024/01/03 06:22:26;;;;;;;1.75;0.60;;;;;;;;;;5020571;28;20233;-66
2024/01/03 06:24:55;;;;;;;0.30;0.30;;;;;;;;;;5021131;28;20206;-66
2024/01/03 06:27:22;;;;;;;1.00;0.47;;;;;;;;;;5020732;28;20280;-66
2024/01/03 06:29:50;;;;;;;0.60;0.30;;;;;;;;;;5021014;28;20225;-66
2024/01/03 06:32:18;;;;;;;0.82;0.50;;;;;;;;;;5020010;28;20264;-66
2024/01/03 06:34:45;;;;;;;0.45;0.30;;;;;;;;;;5020422;28;20213;-66
2024/01/03 06:37:12;;;;;;;0.60;0.60;;;;;;;;;;5021502;28;20304;-66
2024/01/03 06:39:40;;;;;;;0.82;0.60;;;;;;;;;;5020620;28;20206;-66
2024/01/03 06:42:09;;;;;;;0.80;0.43;;;;;;;;;;5020606;28;20221;-66
2024/01/03 06:44:36;;;;;;;0.98;0.40;;;;;;;;;;5020585;28;20218;-66
2024/01/03 06:47:04;;;;;;;0.93;0.43;;;;;;;;;;5020851;28;20300;-66
2024/01/03 06:49:31;;;;;;;0.75;0.40;;;;;;;;;;5020548;28;20611;-66
2024/01/03 06:51:59;;;;;;;0.77;0.40;;;;;;;;;;5020715;28;20272;-66
2024/01/03 06:54:26;;;;;;;0.70;0.30;;;;;;;;;;5021038;28;20289;-66
2024/01/03 06:56:54;;;;;;;0.50;0.50;;;;;;;;;;5020562;28;20213;-66
2024/01/03 06:59:23;;;;;;;0.95;0.30;;;;;;;;;;5019895;28;20206;-66
2024/01/03 07:01:51;;;;;;;0.65;0.40;;;;;;;;;;5020699;28;20214;-66
2024/01/03 07:04:21;;;;;;;0.88;0.32;;;;;;;;;;5020769;28;20272;-66
2024/01/03 07:06:48;;;;;;;0.77;0.50;;;;;;;;;;5020934;28;20209;-66
2024/01/03 07:09:16;;;;;;;1.15;0.50;;;;;;;;;;5021635;28;20236;-65
2024/01/03 07:11:43;;;;;;;0.50;0.40;;;;;;;;;;5020615;28;20198;-65
2024/01/03 07:14:13;;;;;;;0.57;0.40;;;;;;;;;;5020779;28;20875;-65
2024/01/03 07:16:43;;;;;;;1.63;0.52;;;;;;;;;;5021100;28;20581;-66
2024/01/03 07:19:10;;;;;;;1.15;0.50;;;;;;;;;;5020595;28;20665;-66
2024/01/03 07:21:38;;;;;;;0.50;0.50;;;;;;;;;;5020127;28;20207;-66
2024/01/03 07:24:05;;;;;;;0.77;0.47;;;;;;;;;;5016994;28;20289;-66
2024/01/03 07:26:33;;;;;;;0.63;0.45;;;;;;;;;;5017819;28;20305;-66
2024/01/03 07:29:00;;;;;;;0.65;0.45;;;;;;;;;;5017450;28;20241;-66
2024/01/03 07:31:28;;;;;;;0.40;0.40;;;;;;;;;;5017132;28;20216;-66
2024/01/03 07:33:57;;;;;;;0.75;0.50;;;;;;;;;;5017612;28;20208;-66
2024/01/03 07:36:24;;;;;;;0.63;0.35;;;;;;;;;;5017007;28;20265;-67
2024/01/03 07:38:51;;;;;;;1.20;0.60;;;;;;;;;;5017227;28;20241;-66
2024/01/03 07:41:20;;;;;;;0.70;0.60;;;;;;;;;;5017266;28;20264;-66
2024/01/03 07:43:47;;;;;;;1.25;0.50;;;;;;;;;;5017419;28;20206;-66
2024/01/03 07:46:16;;;;;;;0.90;0.55;;;;;;;;;;5017444;28;20202;-66
2024/01/03 07:48:43;;;;;;;1.13;0.60;;;;;;;;;;5016484;28;20266;-66
2024/01/03 07:51:13;;;;;;;1.58;0.40;;;;;;;;;;5016763;28;20573;-66
2024/01/03 07:53:40;;;;;;;0.77;0.52;;;;;;;;;;5017234;28;20210;-66
2024/01/03 07:56:09;;;;;;;0.55;0.40;;;;;;;;;;5017622;28;20210;-66
2024/01/03 07:58:36;;;;;;;0.63;0.50;;;;;;;;;;5016743;28;20574;-66
2024/01/03 08:01:04;;;;;;;0.98;0.50;;;;;;;;;;5017143;28;20216;-66
2024/01/03 08:03:31;;;;;;;0.98;0.52;;;;;;;;;;5016470;28;20241;-66
2024/01/03 08:05:59;;;;;;;1.30;0.60;;;;;;;;;;5016529;28;20233;-66
2024/01/03 08:08:28;;;;;;;0.70;0.50;;;;;;;;;;5016879;28;20226;-66
2024/01/03 08:10:55;;;;;;;0.80;0.45;;;;;;;;;;5017381;28;20207;-66
2024/01/03 08:13:24;;;;;;;1.17;0.50;;;;;;;;;;5016722;28;20220;-66
2024/01/03 08:15:51;;;;;;;0.98;0.60;;;;;;;;;;5016949;28;20206;-66
2024/01/03 08:18:18;;;;;;;0.73;0.50;;;;;;;;;;5016449;28;20253;-66
2024/01/03 08:20:46;;;;;;;1.00;0.50;;;;;;;;;;5017129;28;20210;-65
2024/01/03 08:23:14;;;;;;;1.10;0.57;;;;;;;;;;5016606;28;20213;-65
2024/01/03 08:25:43;;;;;;;1.85;1.05;;;;;;;;;;5016622;28;20261;-65
2024/01/03 08:28:11;;;;;;;0.70;0.50;;;;;;;;;;5015964;28;20598;-65
2024/01/03 08:30:38;;;;;;;1.02;0.70;;;;;;;;;;5016484;28;20219;-65
2024/01/03 08:33:06;;;;;;;0.50;0.40;;;;;;;;;;5015437;28;20466;-66
2024/01/03 08:35:33;;;;;;;0.80;0.50;;;;;;;;;;5016510;28;20304;-66
2024/01/03 08:38:01;;;;;;;0.57;0.35;;;;;;;;;;5016190;28;20262;-66
2024/01/03 08:40:29;;;;;;;0.85;0.60;;;;;;;;;;5016146;28;20242;-66
2024/01/03 08:42:57;;;;;;;0.90;0.60;;;;;;;;;;5015597;28;20563;-66
2024/01/03 08:45:25;;;;;;;1.27;0.40;;;;;;;;;;5016284;28;20290;-66
2024/01/03 08:47:52;;;;;;;0.60;0.60;;;;;;;;;;5015694;28;20257;-66
2024/01/03 08:50:20;;;;;;;1.27;0.57;;;;;;;;;;5015508;28;20268;-66
2024/01/03 08:52:48;;;;;;;0.70;0.57;;;;;;;;;;5015296;28;20214;-66
2024/01/03 08:55:15;;;;;;;1.45;0.45;;;;;;;;;;5015855;28;20293;-66
2024/01/03 08:57:43;;;;;;;0.70;0.50;;;;;;;;;;5015540;28;20305;-66
2024/01/03 09:00:12;;;;;;;1.38;0.55;;;;;;;;;;5015768;28;20672;-66
2024/01/03 09:02:40;;;;;;;0.82;0.52;;;;;;;;;;5015461;28;20214;-66
2024/01/03 09:05:09;;;;;;;1.33;0.90;;;;;;;;;;5015477;28;20210;-66
2024/01/03 09:10:18;;;;;;;1.67;0.65;;;;;;;;;;5013791;28;20272;-66
2024/01/03 09:12:45;;;;;;;0.73;0.52;;;;;;;;;;5015985;28;20272;-66
2024/01/03 09:15:15;;;;;;;1.40;0.60;;;;;;;;;;5015769;28;20398;-66
2024/01/03 09:17:43;;;;;;;1.25;0.70;;;;;;;;;;5015521;28;20221;-65
2024/01/03 09:20:11;;;;;;;1.17;0.70;;;;;;;;;;5013551;28;20523;-65
2024/01/03 09:22:38;;;;;;;1.15;0.60;;;;;;;;;;5016291;28;20213;-66
2024/01/03 09:25:06;;;;;;;2.05;0.52;;;;;;;;;;5015274;28;20202;-66
2024/01/03 09:27:33;;;;;;;1.13;0.60;;;;;;;;;;5014971;28;20202;-66
2024/01/03 09:30:00;;;;;;;0.52;0.50;;;;;;;;;;5015503;28;20241;-66
2024/01/03 09:32:29;;;;;;;2.25;0.60;;;;;;;;;;5014712;28;20238;-66
2024/01/03 09:34:57;;;;;;;0.75;0.65;;;;;;;;;;5014671;28;20206;-65
2024/01/03 09:37:24;;;;;;;2.53;0.85;;;;;;;;;;5015394;28;20206;-65
2024/01/03 09:39:51;;;;;;;1.98;0.73;;;;;;;;;;5015517;28;20206;-65
2024/01/03 09:42:19;;;;;;;1.58;0.93;;;;;;;;;;5015348;28;20206;-65
2024/01/03 09:44:47;;;;;;;1.73;0.70;;;;;;;;;;5015133;28;20207;-66
2024/01/03 09:47:14;;;;;;;1.23;0.52;;;;;;;;;;5015094;28;20206;-66
2024/01/03 09:49:43;;;;;;;1.60;0.75;;;;;;;;;;5015094;28;20237;-66
2024/01/03 09:52:11;;;;;;;1.30;0.70;;;;;;;;;;5014878;28;20523;-65
2024/01/03 09:54:39;;;;;;;1.42;0.70;;;;;;;;;;5014910;28;20206;-66
2024/01/03 09:57:07;;;;;;;1.60;0.75;;;;;;;;;;5015040;28;20206;-66
2024/01/03 09:59:35;;;;;;;2.25;0.60;;;;;;;;;;5015092;28;20492;-66
2024/01/03 10:02:02;;;;;;;1.60;0.88;;;;;;;;;;5014612;28;20210;-66
2024/01/03 10:04:29;;;;;;;1.30;0.63;;;;;;;;;;5015108;28;20662;-66
2024/01/03 10:06:59;;;;;;;1.60;0.50;;;;;;;;;;5015228;28;20206;-66
2024/01/03 10:09:26;;;;;;;0.93;0.68;;;;;;;;;;5015196;28;20230;-66
2024/01/03 10:11:54;;;;;;;1.55;0.60;;;;;;;;;;5014831;28;20252;-66
2024/01/03 10:14:22;;;;;;;1.95;0.90;;;;;;;;;;5015205;28;20210;-66
2024/01/03 10:16:50;;;;;;;1.08;0.60;;;;;;;;;;5014849;28;20198;-66
2024/01/03 10:19:18;;;;;;;1.20;0.85;;;;;;;;;;5014750;28;20483;-66
2024/01/03 10:21:49;;;;;;;0.68;0.50;;;;;;;;;;5014284;28;20500;-66
2024/01/03 10:24:19;;;;;;;0.73;0.50;;;;;;;;;;5015084;28;20213;-66
2024/01/03 10:26:48;;;;;;;1.33;0.80;;;;;;;;;;5014647;28;20209;-66
2024/01/03 10:29:16;;;;;;;1.15;0.60;;;;;;;;;;5015179;28;20226;-66
2024/01/03 10:31:44;;;;;;;0.75;0.50;;;;;;;;;;5014739;28;20213;-66
2024/01/03 10:34:15;;;;;;;0.85;0.60;;;;;;;;;;5014639;28;20492;-66
2024/01/03 10:36:43;;;;;;;2.40;0.60;;;;;;;;;;5014561;28;20488;-66
2024/01/03 10:39:14;;;;;;;1.23;0.70;;;;;;;;;;5014335;28;20195;-66
2024/01/03 10:41:44;;;;;;;1.73;0.60;;;;;;;;;;5014022;28;20268;-66
2024/01/03 10:44:12;;;;;;;1.67;0.70;;;;;;;;;;5013786;28;20202;-66
2024/01/03 10:46:40;;;;;;;1.20;0.60;;;;;;;;;;5013913;28;20206;-66
2024/01/03 10:49:07;;;;;;;1.70;0.77;;;;;;;;;;5013901;28;20227;-66
2024/01/03 10:51:39;;;;;;;1.13;0.60;;;;;;;;;;5013775;28;20272;-66
2024/01/03 10:54:08;;;;;;;1.40;0.75;;;;;;;;;;5013831;28;20297;-66
2024/01/03 10:56:36;;;;;;;1.02;0.60;;;;;;;;;;5014846;28;20526;-66
2024/01/03 10:59:06;;;;;;;0.70;0.60;;;;;;;;;;5017451;28;20241;-66
2024/01/03 11:01:36;;;;;;;1.45;0.65;;;;;;;;;;5017767;28;20213;-66
2024/01/03 11:04:08;;;;;;;0.82;0.47;;;;;;;;;;5017923;28;20207;-66
2024/01/03 11:06:38;;;;;;;0.68;0.47;;;;;;;;;;5017900;28;20631;-66
2024/01/03 11:09:07;;;;;;;1.38;0.60;;;;;;;;;;5017186;28;20229;-66
2024/01/03 11:11:35;;;;;;;1.40;0.75;;;;;;;;;;5016474;28;20465;-66
2024/01/03 11:14:03;;;;;;;0.88;0.60;;;;;;;;;;5016381;28;20497;-66
2024/01/03 11:16:37;;;;;;;1.65;0.80;;;;;;;;;;5017531;28;20589;-66
2024/01/03 11:19:05;;;;;;;1.55;0.60;;;;;;;;;;5017699;28;20234;-66
2024/01/03 11:21:42;;;;;;;0.93;0.70;;;;;;;;;;5016745;28;20261;-66
2024/01/03 11:24:28;;;;;;;1.15;0.63;;;;;;;;;;5016724;28;20292;-66
2024/01/03 11:27:04;;;;;;;0.70;0.50;;;;;;;;;;5016447;28;20803;-66
2024/01/03 11:29:44;;;;;;;0.57;0.50;;;;;;;;;;5016279;28;20288;-66
2024/01/03 11:32:14;;;;;;;1.67;0.57;;;;;;;;;;5016635;28;20234;-66
2024/01/03 11:34:43;;;;;;;0.60;0.50;;;;;;;;;;5016376;28;20207;-66
2024/01/03 11:37:25;;;;;;;1.02;0.50;;;;;;;;;;5016885;28;20573;-66
2024/01/03 11:39:53;;;;;;;0.75;0.57;;;;;;;;;;5015227;28;20225;-66
2024/01/03 11:42:22;;;;;;;1.33;0.60;;;;;;;;;;5016279;28;20577;-66
2024/01/03 11:45:01;;;;;;;1.52;0.70;;;;;;;;;;5016719;28;20301;-66
2024/01/03 11:47:30;;;;;;;1.25;0.43;;;;;;;;;;5016401;28;20206;-66
2024/01/03 11:49:58;;;;;;;0.63;0.40;;;;;;;;;;5017159;28;20226;-66
2024/01/03 11:52:26;;;;;;;0.85;0.40;;;;;;;;;;5016562;28;20206;-66
2024/01/03 11:54:54;;;;;;;1.50;0.60;;;;;;;;;;5016205;28;20199;-66
2024/01/03 11:57:24;;;;;;;0.75;0.57;;;;;;;;;;5016345;28;20245;-66
2024/01/03 12:00:00;;;;;;;0.85;0.60;;;;;;;;;;5016551;28;20206;-66
2024/01/03 12:02:27;;;;;;;0.82;0.60;;;;;;;;;;5016052;28;20213;-66
2024/01/03 12:05:01;;;;;;;0.75;0.47;;;;;;;;;;5014840;28;20198;-66
2024/01/03 12:07:29;;;;;;;0.50;0.50;;;;;;;;;;5015565;28;20579;-66
2024/01/03 12:09:58;;;;;;;0.60;0.50;;;;;;;;;;5015656;28;20236;-66
2024/01/03 12:12:25;;;;;;;1.95;0.65;;;;;;;;;;5016162;28;20206;-66
2024/01/03 12:14:54;;;;;;;1.08;0.70;;;;;;;;;;5015130;28;20218;-66
2024/01/03 12:17:28;;;;;;;1.55;0.60;;;;;;;;;;5015855;28;20551;-66
2024/01/03 12:19:57;;;;;;;0.70;0.50;;;;;;;;;;5015795;28;20272;-66
2024/01/03 12:22:26;;;;;;;1.30;0.80;;;;;;;;;;5015474;28;20214;-66
2024/01/03 12:24:53;;;;;;;0.93;0.68;;;;;;;;;;5013385;28;20216;-66
2024/01/03 12:27:22;;;;;;;0.60;0.60;;;;;;;;;;5012141;28;20210;-66
2024/01/03 12:29:50;;;;;;;0.73;0.40;;;;;;;;;;5014983;28;20357;-66
2024/01/03 12:32:18;;;;;;;0.82;0.57;;;;;;;;;;5015488;28;20210;-66
2024/01/03 12:34:47;;;;;;;0.52;0.40;;;;;;;;;;5014906;28;20296;-66
2024/01/03 12:37:14;;;;;;;0.60;0.50;;;;;;;;;;4997392;28;20202;-66
2024/01/03 12:39:44;;;;;;;0.82;0.50;;;;;;;;;;5015434;28;20532;-66
2024/01/03 12:42:13;;;;;;;1.08;0.60;;;;;;;;;;5014375;28;20580;-66
2024/01/03 12:44:43;;;;;;;0.50;0.40;;;;;;;;;;5014700;28;20199;-66
2024/01/03 12:47:11;;;;;;;1.27;0.50;;;;;;;;;;5014788;28;20221;-66
2024/01/03 12:49:39;;;;;;;1.10;0.65;;;;;;;;;;5014192;28;20233;-66
2024/01/03 12:52:06;;;;;;;0.47;0.43;;;;;;;;;;5014859;28;20230;-66
2024/01/03 12:54:34;;;;;;;2.42;0.60;;;;;;;;;;5015000;28;20216;-66
2024/01/03 12:57:06;;;;;;;0.50;0.47;;;;;;;;;;5014863;28;20249;-66
2024/01/03 12:59:36;;;;;;;0.32;0.30;;;;;;;;;;5014613;28;20846;-66
2024/01/03 13:02:03;;;;;;;1.58;0.40;;;;;;;;;;5014916;28;20277;-66
2024/01/03 13:04:32;;;;;;;0.82;0.68;;;;;;;;;;5015170;28;20198;-66
2024/01/03 13:06:59;;;;;;;1.00;0.60;;;;;;;;;;5001656;28;20202;-66
2024/01/03 13:09:30;;;;;;;1.38;0.52;;;;;;;;;;5001012;28;20215;-66
2024/01/03 13:11:58;;;;;;;1.17;0.50;;;;;;;;;;5014943;28;20252;-66
2024/01/03 13:14:27;;;;;;;0.93;0.47;;;;;;;;;;5014653;28;20210;-66
2024/01/03 13:16:54;;;;;;;1.52;0.60;;;;;;;;;;5014884;28;20209;-66
2024/01/03 13:19:22;;;;;;;2.13;0.70;;;;;;;;;;5014518;28;20194;-66
2024/01/03 13:21:50;;;;;;;0.98;0.50;;;;;;;;;;5012876;28;20210;-66
2024/01/03 13:24:18;;;;;;;2.55;0.60;;;;;;;;;;5014517;28;20217;-66
2024/01/03 13:26:47;;;;;;;1.15;0.60;;;;;;;;;;5014744;28;20217;-66
2024/01/03 13:29:15;;;;;;;1.15;0.50;;;;;;;;;;5013659;28;20300;-66
2024/01/03 13:31:44;;;;;;;1.30;0.60;;;;;;;;;;5014278;28;20630;-66
2024/01/03 13:34:11;;;;;;;1.83;0.60;;;;;;;;;;5014725;28;20206;-66
2024/01/03 13:36:39;;;;;;;1.40;0.50;;;;;;;;;;5014544;28;20485;-66
2024/01/03 13:39:07;;;;;;;1.48;0.60;;;;;;;;;;5014690;28;20216;-66
2024/01/03 13:41:34;;;;;;;1.15;0.63;;;;;;;;;;5014022;28;20210;-66
2024/01/03 13:44:02;;;;;;;0.85;0.50;;;;;;;;;;5014554;28;20215;-66
2024/01/03 13:46:29;;;;;;;1.00;0.65;;;;;;;;;;5014058;28;20202;-66
2024/01/03 13:48:58;;;;;;;1.73;0.70;;;;;;;;;;5013122;28;20206;-66
2024/01/03 13:51:26;;;;;;;1.92;0.80;;;;;;;;;;5014130;28;20215;-66
2024/01/03 13:53:54;;;;;;;1.60;0.80;;;;;;;;;;5014185;28;20207;-66
2024/01/03 13:56:22;;;;;;;1.77;0.60;;;;;;;;;;5014113;28;20824;-66
2024/01/03 13:58:50;;;;;;;1.00;0.50;;;;;;;;;;5013886;28;20210;-66
2024/01/03 14:01:17;;;;;;;1.75;0.95;;;;;;;;;;5006333;28;20206;-66
2024/01/03 14:03:45;;;;;;;1.92;0.70;;;;;;;;;;5013351;28;20205;-66
2024/01/03 14:06:14;;;;;;;1.02;0.63;;;;;;;;;;5013426;28;20248;-66
2024/01/03 14:08:43;;;;;;;0.75;0.50;;;;;;;;;;5013717;28;20211;-66
2024/01/03 14:11:10;;;;;;;1.08;0.70;;;;;;;;;;5012317;28;20678;-66
2024/01/03 14:13:37;;;;;;;1.55;0.45;;;;;;;;;;5013317;28;20600;-66
2024/01/03 14:16:07;;;;;;;1.35;0.68;;;;;;;;;;5013109;28;20573;-66
2024/01/03 14:18:35;;;;;;;1.58;0.63;;;;;;;;;;5012454;28;20233;-66
2024/01/03 14:21:03;;;;;;;1.00;0.70;;;;;;;;;;5012596;28;20232;-66
2024/01/03 14:23:31;;;;;;;1.67;0.60;;;;;;;;;;5013591;28;20221;-66
2024/01/03 14:25:59;;;;;;;1.40;0.50;;;;;;;;;;5012068;28;20212;-66
2024/01/03 14:28:26;;;;;;;1.30;0.60;;;;;;;;;;5013665;28;20206;-66
2024/01/03 14:30:54;;;;;;;1.30;0.50;;;;;;;;;;5013161;28;20232;-66
2024/01/03 14:33:22;;;;;;;1.65;0.70;;;;;;;;;;5017542;28;20202;-66
2024/01/03 14:35:49;;;;;;;1.48;0.52;;;;;;;;;;5017966;28;20241;-66
2024/01/03 14:38:16;;;;;;;1.05;0.70;;;;;;;;;;5015369;28;20765;-66
2024/01/03 14:40:48;;;;;;;1.38;0.73;;;;;;;;;;4997636;28;20199;-66
2024/01/03 14:43:30;;;;;;;0.85;0.60;;;;;;;;;;4997331;28;20577;-66
2024/01/03 14:45:59;;;;;;;1.15;0.70;;;;;;;;;;5003921;28;20469;-66
2024/01/03 14:48:27;;;;;;;1.27;0.60;;;;;;;;;;5016741;28;20206;-66
2024/01/03 14:50:55;;;;;;;1.00;0.60;;;;;;;;;;5017570;28;20608;-66
2024/01/03 14:53:22;;;;;;;1.30;0.63;;;;;;;;;;5016559;28;20233;-66